createdAt,value
2023-01-05T00:01:53.739Z,100.00
2023-01-05T00:04:20.336Z,100.00
2023-01-05T00:06:46.859Z,100.00
2023-01-05T00:09:15.651Z,100.00
2023-01-05T00:12:00.980Z,100.00
2023-01-05T00:14:47.914Z,100.00
2023-01-05T00:17:34.493Z,100.00
2023-01-05T00:20:19.921Z,100.00
2023-01-05T00:22:47.628Z,100.00
2023-01-05T00:25:24.455Z,100.00
2023-01-05T00:27:52.133Z,100.00
2023-01-05T00:30:20.090Z,100.00
2023-01-05T00:32:47.043Z,100.00
2023-01-05T00:35:14.352Z,100.00
2023-01-05T00:37:40.861Z,100.00
2023-01-05T00:40:11.308Z,100.00
2023-01-05T00:42:37.965Z,100.00
2023-01-05T00:45:08.319Z,100.00
2023-01-05T00:47:34.896Z,100.00
2023-01-05T00:50:01.473Z,100.00
2023-01-05T00:52:27.938Z,100.00
2023-01-05T00:54:54.407Z,100.00
2023-01-05T00:57:20.894Z,100.00
2023-01-05T00:59:47.524Z,100.00
2023-01-05T01:02:14.610Z,100.00
2023-01-05T01:04:41.142Z,100.00
2023-01-05T01:07:07.639Z,100.00
2023-01-05T01:09:34.275Z,100.00
2023-01-05T01:12:01.283Z,100.00
2023-01-05T01:14:27.826Z,100.00
2023-01-05T01:16:54.343Z,100.00
2023-01-05T01:19:24.972Z,100.00
2023-01-05T01:21:51.786Z,100.00
2023-01-05T01:24:25.773Z,100.00
2023-01-05T01:26:52.878Z,100.00
2023-01-05T01:29:19.694Z,100.00
2023-01-05T01:31:49.664Z,100.00
2023-01-05T01:34:16.485Z,100.00
2023-01-05T01:36:43.112Z,100.00
2023-01-05T01:39:11.014Z,100.00
2023-01-05T01:41:39.772Z,100.00
2023-01-05T01:44:25.833Z,100.00
2023-01-05T01:46:52.491Z,100.00
2023-01-05T01:49:19.037Z,100.00
2023-01-05T01:51:47.967Z,100.00
2023-01-05T01:54:17.963Z,100.00
2023-01-05T01:57:03.502Z,100.00
2023-01-05T01:59:30.275Z,100.00
2023-01-05T02:02:00.415Z,100.00
2023-01-05T02:04:29.562Z,100.00
2023-01-05T02:06:56.183Z,100.00
2023-01-05T02:09:22.745Z,100.00
2023-01-05T02:12:06.913Z,100.00
2023-01-05T02:15:08.907Z,100.00
2023-01-05T02:17:38.431Z,100.00
2023-01-05T02:20:14.083Z,100.00
2023-01-05T02:22:50.314Z,100.00
2023-01-05T02:25:38.906Z,100.00
2023-01-05T02:28:05.687Z,100.00
2023-01-05T02:30:51.200Z,100.00
2023-01-05T02:33:27.667Z,100.00
2023-01-05T02:36:03.099Z,100.00
2023-01-05T02:38:29.564Z,100.00
2023-01-05T02:40:58.747Z,100.00
2023-01-05T02:43:27.134Z,100.00
2023-01-05T02:45:53.850Z,100.00
2023-01-05T02:48:20.436Z,100.00
2023-01-05T02:50:53.751Z,100.00
2023-01-05T02:53:29.376Z,100.00
2023-01-05T02:56:02.055Z,100.00
2023-01-05T02:58:59.828Z,100.00
2023-01-05T03:01:30.925Z,100.00
2023-01-05T03:04:03.982Z,100.00
2023-01-05T03:06:36.199Z,100.00
2023-01-05T03:09:05.042Z,100.00
2023-01-05T03:11:56.427Z,100.00
2023-01-05T03:14:28.890Z,100.00
2023-01-05T03:16:57.331Z,100.00
2023-01-05T03:19:39.606Z,100.00
2023-01-05T03:22:34.455Z,100.00
2023-01-05T03:25:22.230Z,100.00
2023-01-05T03:28:08.039Z,100.00
2023-01-05T03:30:57.885Z,100.00
2023-01-05T03:34:03.956Z,100.00
2023-01-05T03:36:32.914Z,100.00
2023-01-05T03:39:01.665Z,100.00
2023-01-05T03:41:30.130Z,100.00
2023-01-05T03:43:57.896Z,100.00
2023-01-05T03:46:24.569Z,100.00
2023-01-05T03:48:52.475Z,100.00
2023-01-05T03:51:20.213Z,100.00
2023-01-05T03:53:47.104Z,100.00
2023-01-05T03:56:13.616Z,100.00
2023-01-05T03:58:40.395Z,100.00
2023-01-05T04:01:08.479Z,100.00
2023-01-05T04:03:35.263Z,100.00
2023-01-05T04:06:05.418Z,100.00
2023-01-05T04:08:33.896Z,100.00
2023-01-05T04:11:12.236Z,100.00
2023-01-05T04:13:38.803Z,100.00
2023-01-05T04:16:07.099Z,100.00
2023-01-05T04:18:35.808Z,100.00
2023-01-05T04:21:03.277Z,100.00
2023-01-05T04:23:30.169Z,100.00
2023-01-05T04:25:56.710Z,100.00
2023-01-05T04:28:24.156Z,100.00
2023-01-05T04:30:54.531Z,100.00
2023-01-05T04:33:22.743Z,100.00
2023-01-05T04:35:49.401Z,100.00
2023-01-05T04:38:16.049Z,100.00
2023-01-05T04:40:47.683Z,100.00
2023-01-05T04:43:14.135Z,100.00
2023-01-05T04:45:40.940Z,100.00
2023-01-05T04:48:07.729Z,100.00
2023-01-05T04:50:34.374Z,100.00
2023-01-05T04:53:01.635Z,100.00
2023-01-05T04:55:29.582Z,100.00
2023-01-05T04:57:56.073Z,100.00
2023-01-05T05:00:23.725Z,100.00
2023-01-05T05:02:51.320Z,100.00
2023-01-05T05:05:18.583Z,100.00
2023-01-05T05:07:49.285Z,100.00
2023-01-05T05:10:17.971Z,100.00
2023-01-05T05:12:45.251Z,100.00
2023-01-05T05:15:12.828Z,100.00
2023-01-05T05:17:44.238Z,100.00
2023-01-05T05:20:13.010Z,100.00
2023-01-05T05:22:39.459Z,100.00
2023-01-05T05:25:06.611Z,100.00
2023-01-05T05:27:33.071Z,100.00
2023-01-05T05:29:59.517Z,100.00
2023-01-05T05:32:26.022Z,100.00
2023-01-05T05:34:52.490Z,100.00
2023-01-05T05:37:19.048Z,100.00
2023-01-05T05:39:45.509Z,100.00
2023-01-05T05:42:12.170Z,100.00
2023-01-05T05:44:39.006Z,100.00
2023-01-05T05:47:05.550Z,100.00
2023-01-05T05:49:32.055Z,100.00
2023-01-05T05:51:58.474Z,100.00
2023-01-05T05:54:24.972Z,100.00
2023-01-05T05:56:51.372Z,100.00
2023-01-05T05:59:17.856Z,100.00
2023-01-05T06:01:46.162Z,100.00
2023-01-05T06:04:12.682Z,100.00
2023-01-05T06:06:39.842Z,100.00
2023-01-05T06:09:06.512Z,100.00
2023-01-05T06:11:33.092Z,100.00
2023-01-05T06:13:59.587Z,100.00
2023-01-05T06:16:26.174Z,100.00
2023-01-05T06:18:52.619Z,100.00
2023-01-05T06:21:21.356Z,100.00
2023-01-05T06:23:48.013Z,100.00
2023-01-05T06:26:14.487Z,100.00
2023-01-05T06:28:40.920Z,100.00
2023-01-05T06:31:07.386Z,100.00
2023-01-05T06:33:33.912Z,100.00
2023-01-05T06:36:00.349Z,100.00
2023-01-05T06:38:27.321Z,100.00
2023-01-05T06:40:54.659Z,100.00
2023-01-05T06:43:21.415Z,100.00
2023-01-05T06:45:47.974Z,100.00
2023-01-05T06:48:14.561Z,100.00
2023-01-05T06:50:41.061Z,100.00
2023-01-05T06:53:07.853Z,100.00
2023-01-05T06:55:34.344Z,100.00
2023-01-05T06:58:01.559Z,100.00
2023-01-05T07:00:28.548Z,100.00
2023-01-05T07:02:55.137Z,100.00
2023-01-05T07:05:23.250Z,100.00
2023-01-05T07:07:50.089Z,100.00
2023-01-05T07:10:16.708Z,100.00
2023-01-05T07:12:43.142Z,100.00
2023-01-05T07:15:09.833Z,100.00
2023-01-05T07:17:36.648Z,100.00
2023-01-05T07:20:03.981Z,100.00
2023-01-05T07:22:30.932Z,100.00
2023-01-05T07:24:58.429Z,100.00
2023-01-05T07:27:24.977Z,100.00
2023-01-05T07:29:51.708Z,100.00
2023-01-05T07:32:18.199Z,100.00
2023-01-05T07:34:51.215Z,100.00
2023-01-05T07:37:21.180Z,100.00
2023-01-05T07:39:47.820Z,100.00
2023-01-05T07:42:14.249Z,100.00
2023-01-05T07:44:41.487Z,100.00
2023-01-05T07:47:07.927Z,100.00
2023-01-05T07:49:34.443Z,100.00
2023-01-05T07:52:00.904Z,100.00
2023-01-05T07:54:27.614Z,100.00
2023-01-05T07:56:54.141Z,100.00
2023-01-05T07:59:20.612Z,100.00
2023-01-05T08:01:47.524Z,100.00
2023-01-05T08:04:14.118Z,100.00
2023-01-05T08:06:40.623Z,100.00
2023-01-05T08:09:39.364Z,100.00
2023-01-05T08:12:06.011Z,100.00
2023-01-05T08:14:32.502Z,100.00
2023-01-05T08:16:59.010Z,100.00
2023-01-05T08:19:25.571Z,100.00
2023-01-05T08:21:52.076Z,100.00
2023-01-05T08:24:18.587Z,100.00
2023-01-05T08:26:45.092Z,100.00
2023-01-05T08:29:11.528Z,100.00
2023-01-05T08:31:39.366Z,100.00
2023-01-05T08:34:06.273Z,100.00
2023-01-05T08:36:33.338Z,100.00
2023-01-05T08:39:01.537Z,100.00
2023-01-05T08:41:30.658Z,100.00
2023-01-05T08:43:58.785Z,100.00
2023-01-05T08:46:26.266Z,100.00
2023-01-05T08:48:53.886Z,100.00
2023-01-05T08:51:20.671Z,100.00
2023-01-05T08:53:47.763Z,100.00
2023-01-05T08:56:14.468Z,100.00
2023-01-05T08:58:41.609Z,100.00
2023-01-05T09:01:08.811Z,98.81
2023-01-05T09:03:35.521Z,96.23
2023-01-05T09:06:03.437Z,93.76
2023-01-05T09:08:31.006Z,92.74
2023-01-05T09:11:18.223Z,91.16
2023-01-05T09:13:52.260Z,89.69
2023-01-05T09:16:35.504Z,89.56
2023-01-05T09:19:06.774Z,90.25
2023-01-05T09:21:33.605Z,89.18
2023-01-05T09:24:00.193Z,90.03
2023-01-05T09:26:26.640Z,88.86
2023-01-05T09:28:53.307Z,88.34
2023-01-05T09:31:20.948Z,83.54
2023-01-05T09:33:47.840Z,86.01
2023-01-05T09:36:15.400Z,86.25
2023-01-05T09:38:46.849Z,87.88
2023-01-05T09:41:21.130Z,86.54
2023-01-05T09:43:49.022Z,85.00
2023-01-05T09:46:18.166Z,81.95
2023-01-05T09:48:47.059Z,82.88
2023-01-05T09:51:13.786Z,81.32
2023-01-05T09:53:40.846Z,80.87
2023-01-05T09:56:13.744Z,79.41
2023-01-05T09:58:42.738Z,79.52
2023-01-05T10:01:14.460Z,76.93
2023-01-05T10:04:03.585Z,76.18
2023-01-05T10:06:34.604Z,73.52
2023-01-05T10:09:02.332Z,75.82
2023-01-05T10:12:05.819Z,76.50
2023-01-05T10:14:37.830Z,74.59
2023-01-05T10:17:39.791Z,73.44
2023-01-05T10:19:55.103Z,70.66
2023-01-05T10:22:27.648Z,70.31
2023-01-05T10:24:57.017Z,68.57
2023-01-05T10:27:25.112Z,69.03
2023-01-05T10:29:57.469Z,69.51
2023-01-05T10:32:49.075Z,69.34
2023-01-05T10:38:20.945Z,70.45
2023-01-05T10:40:47.462Z,69.91
2023-01-05T10:43:32.614Z,65.50
2023-01-05T10:46:29.903Z,70.47
2023-01-05T10:48:45.564Z,72.74
2023-01-05T10:51:12.036Z,71.05
2023-01-05T10:53:40.323Z,68.98
2023-01-05T10:56:12.897Z,71.59
2023-01-05T10:58:43.858Z,72.50
2023-01-05T11:01:25.066Z,73.08
2023-01-05T11:06:42.868Z,69.50
2023-01-05T11:09:15.234Z,72.30
2023-01-05T11:11:53.302Z,72.38
2023-01-05T11:14:20.761Z,72.07
2023-01-05T11:16:48.755Z,72.89
2023-01-05T11:19:21.331Z,71.41
2023-01-05T11:21:47.833Z,71.28
2023-01-05T11:24:23.241Z,71.49
2023-01-05T11:26:58.847Z,72.16
2023-01-05T11:29:25.763Z,72.08
2023-01-05T11:31:54.860Z,71.00
2023-01-05T11:34:38.129Z,70.64
2023-01-05T11:37:08.552Z,68.79
2023-01-05T11:39:35.247Z,70.13
2023-01-05T11:42:07.737Z,70.81
2023-01-05T11:44:34.694Z,71.40
2023-01-05T11:47:01.372Z,73.28
2023-01-05T11:49:28.011Z,72.93
2023-01-05T11:51:54.481Z,74.45
2023-01-05T11:54:33.992Z,74.95
2023-01-05T11:57:12.782Z,71.70
2023-01-05T11:59:39.290Z,71.82
2023-01-05T12:02:11.466Z,75.01
2023-01-05T12:05:04.426Z,71.80
2023-01-05T12:07:30.998Z,74.04
2023-01-05T12:10:12.874Z,76.35
2023-01-05T12:12:39.427Z,76.61
2023-01-05T12:15:05.931Z,75.05
2023-01-05T12:17:38.462Z,77.15
2023-01-05T12:20:25.169Z,76.71
2023-01-05T12:23:03.931Z,77.95
2023-01-05T12:25:42.636Z,79.27
2023-01-05T12:28:35.675Z,77.19
2023-01-05T12:34:18.940Z,77.91
2023-01-05T12:36:48.415Z,77.91
2023-01-05T12:39:33.185Z,77.50
2023-01-05T12:42:06.736Z,77.50
2023-01-05T12:44:33.230Z,77.21
2023-01-05T12:47:11.964Z,78.75
2023-01-05T12:49:42.787Z,79.38
2023-01-05T12:52:13.565Z,78.08
2023-01-05T12:54:49.801Z,79.13
2023-01-05T12:57:29.520Z,80.17
2023-01-05T12:59:59.140Z,79.29
2023-01-05T13:02:35.455Z,79.37
2023-01-05T13:05:10.099Z,78.61
2023-01-05T13:07:55.519Z,69.92
2023-01-05T13:10:45.258Z,68.74
2023-01-05T13:13:13.779Z,59.62
2023-01-05T13:15:41.955Z,57.55
2023-01-05T13:18:14.064Z,53.11
2023-01-05T13:20:46.306Z,49.89
2023-01-05T13:23:19.339Z,51.54
2023-01-05T13:25:50.510Z,47.80
2023-01-05T13:28:18.438Z,47.72
2023-01-05T13:30:53.093Z,47.90
2023-01-05T13:33:25.385Z,47.21
2023-01-05T13:36:01.340Z,47.38
2023-01-05T13:38:27.772Z,50.82
2023-01-05T13:41:03.593Z,51.16
2023-01-05T13:43:47.837Z,53.11
2023-01-05T13:46:20.967Z,49.98
2023-01-05T13:49:05.824Z,48.45
2023-01-05T13:51:38.423Z,50.57
2023-01-05T13:54:13.105Z,53.78
2023-01-05T13:56:40.441Z,56.25
2023-01-05T13:59:24.404Z,59.81
2023-01-05T14:02:01.093Z,57.67
2023-01-05T14:04:31.628Z,54.39
2023-01-05T14:07:02.242Z,55.45
2023-01-05T14:09:30.755Z,55.49
2023-01-05T14:12:10.099Z,56.29
2023-01-05T14:14:58.854Z,56.77
2023-01-05T14:17:45.639Z,58.62
2023-01-05T14:20:30.682Z,60.50
2023-01-05T14:22:57.703Z,61.35
2023-01-05T14:25:36.131Z,62.21
2023-01-05T14:28:19.866Z,62.40
2023-01-05T14:30:47.055Z,62.86
2023-01-05T14:33:13.627Z,62.19
2023-01-05T14:35:40.140Z,62.06
2023-01-05T14:38:18.776Z,62.12
2023-01-05T14:40:48.845Z,64.11
2023-01-05T14:43:21.655Z,65.26
2023-01-05T14:46:02.715Z,65.05
2023-01-05T14:48:32.205Z,63.90
2023-01-05T14:51:17.037Z,63.59
2023-01-05T14:53:45.776Z,62.34
2023-01-05T14:56:26.053Z,62.15
2023-01-05T14:58:55.841Z,62.21
2023-01-05T15:01:28.300Z,63.19
2023-01-05T15:04:00.908Z,62.99
2023-01-05T15:06:46.121Z,63.22
2023-01-05T15:09:24.939Z,63.23
2023-01-05T15:12:01.724Z,63.32
2023-01-05T15:14:51.485Z,63.59
2023-01-05T15:17:27.059Z,64.44
2023-01-05T15:20:03.667Z,64.56
2023-01-05T15:22:38.229Z,64.85
2023-01-05T15:25:31.543Z,64.62
2023-01-05T15:27:57.987Z,64.80
2023-01-05T15:30:34.666Z,65.49
2023-01-05T15:33:09.305Z,66.07
2023-01-05T15:35:43.476Z,67.58
2023-01-05T15:38:20.156Z,66.57
2023-01-05T15:40:47.455Z,65.90
2023-01-05T15:43:15.778Z,66.91
2023-01-05T15:45:43.453Z,66.41
2023-01-05T15:48:15.242Z,67.12
2023-01-05T15:50:46.030Z,67.79
2023-01-05T15:53:44.208Z,68.41
2023-01-05T15:56:30.151Z,69.41
2023-01-05T15:58:56.797Z,70.52
2023-01-05T16:01:23.358Z,70.33
2023-01-05T16:03:50.517Z,69.94
2023-01-05T16:06:25.043Z,72.30
2023-01-05T16:08:52.529Z,73.08
2023-01-05T16:11:31.234Z,72.10
2023-01-05T16:14:00.452Z,73.43
2023-01-05T16:16:51.157Z,72.63
2023-01-05T16:19:22.814Z,72.07
2023-01-05T16:21:54.991Z,72.68
2023-01-05T16:24:33.750Z,74.09
2023-01-05T16:27:02.287Z,73.96
2023-01-05T16:29:38.002Z,72.03
2023-01-05T16:32:05.185Z,73.62
2023-01-05T16:34:33.119Z,72.42
2023-01-05T16:36:59.565Z,73.60
2023-01-05T16:39:26.479Z,74.23
2023-01-05T16:42:21.854Z,74.29
2023-01-05T16:44:52.525Z,74.49
2023-01-05T16:47:30.635Z,74.70
2023-01-05T16:49:58.538Z,75.66
2023-01-05T16:52:28.977Z,77.04
2023-01-05T16:55:20.035Z,77.50
2023-01-05T16:57:50.080Z,77.56
2023-01-05T17:00:22.614Z,78.45
2023-01-05T17:02:49.358Z,75.78
2023-01-05T17:05:17.708Z,77.58
2023-01-05T17:07:45.207Z,80.43
2023-01-05T17:10:23.236Z,81.43
2023-01-05T17:12:58.967Z,81.63
2023-01-05T17:15:26.499Z,83.18
2023-01-05T17:17:55.283Z,82.87
2023-01-05T17:20:23.254Z,84.70
2023-01-05T17:22:50.564Z,85.14
2023-01-05T17:25:17.221Z,86.57
2023-01-05T17:27:44.072Z,86.50
2023-01-05T17:30:19.242Z,86.06
2023-01-05T17:32:45.975Z,86.93
2023-01-05T17:35:12.793Z,86.31
2023-01-05T17:37:39.390Z,85.85
2023-01-05T17:40:06.917Z,86.59
2023-01-05T17:42:42.652Z,87.46
2023-01-05T17:45:27.601Z,86.50
2023-01-05T17:47:54.380Z,86.82
2023-01-05T17:50:22.753Z,87.67
2023-01-05T17:52:49.229Z,87.63
2023-01-05T17:55:15.996Z,83.60
2023-01-05T17:57:42.494Z,81.85
2023-01-05T18:00:11.134Z,80.66
2023-01-05T18:02:37.714Z,80.67
2023-01-05T18:05:04.412Z,80.05
2023-01-05T18:07:31.913Z,80.45
2023-01-05T18:09:58.665Z,80.98
2023-01-05T18:12:25.747Z,80.72
2023-01-05T18:14:52.739Z,79.67
2023-01-05T18:17:19.630Z,79.00
2023-01-05T18:19:46.577Z,78.00
2023-01-05T18:22:13.381Z,81.03
2023-01-05T18:24:39.978Z,82.54
2023-01-05T18:27:07.135Z,81.83
2023-01-05T18:29:34.054Z,81.80
2023-01-05T18:32:01.008Z,83.04
2023-01-05T18:34:27.622Z,83.67
2023-01-05T18:37:01.585Z,82.64
2023-01-05T18:39:32.946Z,83.68
2023-01-05T18:41:59.531Z,84.13
2023-01-05T18:44:26.055Z,84.04
2023-01-05T18:46:52.551Z,84.21
2023-01-05T18:49:18.981Z,83.92
2023-01-05T18:51:45.476Z,83.36
2023-01-05T18:54:12.569Z,82.28
2023-01-05T18:56:39.247Z,82.85
2023-01-05T18:59:05.792Z,83.00
2023-01-05T19:01:32.260Z,83.53
2023-01-05T19:03:58.741Z,84.32
2023-01-05T19:06:25.865Z,83.42
2023-01-05T19:08:52.371Z,83.80
2023-01-05T19:11:20.900Z,83.61
2023-01-05T19:13:49.264Z,82.78
2023-01-05T19:16:17.304Z,82.45
2023-01-05T19:18:47.877Z,81.39
2023-01-05T19:21:14.368Z,81.20
2023-01-05T19:23:40.788Z,82.02
2023-01-05T19:26:07.404Z,82.41
2023-01-05T19:28:38.560Z,82.66
2023-01-05T19:31:09.023Z,83.38
2023-01-05T19:33:35.947Z,84.78
2023-01-05T19:36:03.771Z,84.70
2023-01-05T19:38:31.131Z,84.98
2023-01-05T19:41:09.074Z,85.93
2023-01-05T19:43:36.952Z,86.71
2023-01-05T19:46:06.231Z,87.76
2023-01-05T19:48:36.965Z,87.84
2023-01-05T19:51:05.124Z,89.11
2023-01-05T19:53:32.164Z,90.36
2023-01-05T19:56:03.377Z,90.21
2023-01-05T19:58:29.876Z,90.64
2023-01-05T20:00:58.037Z,90.76
2023-01-05T20:03:24.509Z,92.70
2023-01-05T20:05:50.938Z,92.16
2023-01-05T20:08:17.347Z,91.69
2023-01-05T20:10:43.774Z,91.29
2023-01-05T20:13:10.252Z,91.55
2023-01-05T20:15:36.685Z,92.31
2023-01-05T20:18:03.144Z,92.70
2023-01-05T20:20:29.581Z,92.25
2023-01-05T20:22:56.009Z,92.92
2023-01-05T20:25:22.465Z,92.01
2023-01-05T20:27:49.002Z,92.72
2023-01-05T20:30:15.445Z,92.89
2023-01-05T20:32:41.918Z,93.14
2023-01-05T20:35:11.293Z,93.62
2023-01-05T20:37:37.723Z,93.44
2023-01-05T20:40:04.552Z,94.10
2023-01-05T20:42:31.259Z,95.35
2023-01-05T20:44:58.040Z,95.78
2023-01-05T20:47:24.450Z,95.26
2023-01-05T20:49:51.024Z,94.98
2023-01-05T20:52:17.747Z,95.09
2023-01-05T20:54:44.266Z,95.37
2023-01-05T20:57:10.864Z,95.89
2023-01-05T20:59:41.270Z,95.95
2023-01-05T21:02:18.691Z,96.23
2023-01-05T21:04:49.318Z,97.08
2023-01-05T21:07:15.782Z,96.73
2023-01-05T21:09:42.541Z,95.73
2023-01-05T21:12:09.015Z,95.09
2023-01-05T21:14:35.570Z,93.67
2023-01-05T21:17:02.136Z,93.68
2023-01-05T21:19:28.563Z,94.31
2023-01-05T21:21:56.242Z,93.82
2023-01-05T21:24:22.923Z,94.24
2023-01-05T21:26:49.752Z,94.48
2023-01-05T21:29:16.736Z,95.58
2023-01-05T21:31:43.278Z,96.18
2023-01-05T21:34:11.576Z,95.74
2023-01-05T21:36:41.332Z,95.67
2023-01-05T21:39:08.547Z,96.67
2023-01-05T21:41:54.686Z,96.79
2023-01-05T21:44:21.459Z,97.53
2023-01-05T21:46:48.911Z,98.01
2023-01-05T21:49:15.972Z,98.19
2023-01-05T21:52:01.127Z,97.12
2023-01-05T21:54:46.392Z,96.69
2023-01-05T21:57:13.001Z,96.71
2023-01-05T21:59:39.839Z,93.80
2023-01-05T22:02:06.534Z,91.88
2023-01-05T22:04:33.011Z,94.34
2023-01-05T22:06:59.457Z,94.56
2023-01-05T22:09:25.996Z,95.53
2023-01-05T22:11:52.613Z,96.07
2023-01-05T22:14:19.122Z,95.89
2023-01-05T22:16:45.552Z,95.84
2023-01-05T22:19:12.125Z,96.36
2023-01-05T22:21:38.663Z,96.71
2023-01-05T22:24:05.852Z,97.04
2023-01-05T22:26:32.371Z,98.30
2023-01-05T22:28:58.946Z,97.20
2023-01-05T22:31:27.221Z,96.20
2023-01-05T22:33:54.898Z,95.94
2023-01-05T22:36:22.157Z,96.12
2023-01-05T22:38:49.514Z,97.31
2023-01-05T22:41:19.087Z,97.28
2023-01-05T22:43:46.148Z,92.37
2023-01-05T22:46:15.194Z,94.39
2023-01-05T22:48:43.321Z,96.10
2023-01-05T22:51:12.025Z,96.99
2023-01-05T22:53:39.013Z,97.55
2023-01-05T22:56:05.931Z,97.63
2023-01-05T22:58:32.356Z,97.77
2023-01-05T23:01:11.188Z,97.76
2023-01-05T23:03:37.895Z,98.14
2023-01-05T23:06:04.792Z,97.93
2023-01-05T23:08:31.823Z,97.91
2023-01-05T23:11:09.170Z,98.72
2023-01-05T23:13:35.732Z,99.48
2023-01-05T23:16:02.492Z,99.05
2023-01-05T23:18:28.937Z,98.93
2023-01-05T23:20:56.707Z,98.80
2023-01-05T23:23:23.356Z,98.36
2023-01-05T23:25:50.455Z,98.74
2023-01-05T23:28:18.106Z,98.82
2023-01-05T23:30:49.337Z,98.64
2023-01-05T23:33:16.534Z,98.32
2023-01-05T23:35:43.204Z,98.39
2023-01-05T23:38:10.216Z,98.83
2023-01-05T23:40:43.737Z,99.19
2023-01-05T23:43:14.012Z,99.28
2023-01-05T23:45:43.036Z,99.68
2023-01-05T23:48:10.139Z,99.70
2023-01-05T23:50:36.601Z,98.79
2023-01-05T23:53:03.632Z,98.73
2023-01-05T23:55:30.151Z,98.96
2023-01-05T23:57:56.617Z,99.02
